ACF weather

Brisbane Archerfield Airport
Brisbane, Queensland, Australia

Public forecast

Using degrees Celsius for public forecast. Weather courtesy of forecast.io.

METAR (pilot weather report)

Closest report is Brisbane International Airport, 12.6 nm (23.3 km) NNE. Retrieved 2018/05/21 17:30 UTC (11 minutes ago):

YBBN 211730Z 00000KT CAVOK 10/06 Q1019 NOSIG

TAF (pilot weather forecast)

Closest forecast is Brisbane International Airport, 12.6 nm (23.3 km) NNE. Retrieved 2018/05/21 12:00 UTC (6 hours ago):

TAF YBBN 211116Z 2112/2218 25005KT CAVOK FM220400 05007KT CAVOK FM220800 13006KT CAVOK FM221100 22005KT CAVOK